Time;durP1;ratioP1;P1;durP2;ratioP2;P2;SDS_P1;SDS_P2;PMS_P1;PMS_P2;Temp;Humidity;BMP_temperature;BMP_pressure;BME280_temperature;BME280_humidity;BME280_pressure;Samples;Min_cycle;Max_cycle;Signal;HPM_P1;HPM_P2
2021/05/04 04:10:35;;;;;;;0.70;0.70;;;10.80;82.70;;;;;;5898131;23;21677;-75
2021/05/04 04:13:02;;;;;;;0.70;0.70;;;10.90;82.90;;;;;;4994393;28;20263;-76
2021/05/04 04:15:29;;;;;;;0.60;0.60;;;10.90;82.60;;;;;;4993989;28;20211;-74
2021/05/04 04:17:56;;;;;;;0.70;0.70;;;11.00;82.40;;;;;;4994321;28;20204;-76
2021/05/04 04:20:23;;;;;;;0.70;0.70;;;11.00;99.90;;;;;;4994312;28;20231;-75
2021/05/04 04:22:50;;;;;;;0.60;0.60;;;11.10;82.50;;;;;;4989148;28;20222;-75
2021/05/04 04:25:17;;;;;;;0.70;0.70;;;11.10;81.90;;;;;;4982943;28;20209;-75
2021/05/04 04:27:45;;;;;;;0.70;0.70;;;11.20;82.70;;;;;;4974137;28;20205;-75
2021/05/04 04:30:13;;;;;;;0.70;0.70;;;11.40;99.90;;;;;;4974155;28;20209;-74
2021/05/04 04:32:40;;;;;;;0.60;0.60;;;11.30;82.50;;;;;;4970292;28;20657;-76
2021/05/04 04:35:08;;;;;;;0.70;0.70;;;11.30;82.00;;;;;;4973412;28;20193;-76
2021/05/04 04:37:35;;;;;;;0.70;0.70;;;11.40;82.00;;;;;;4973440;28;20263;-76
2021/05/04 04:40:03;;;;;;;0.70;0.70;;;11.40;82.40;;;;;;4973589;28;20232;-75
2021/05/04 04:42:30;;;;;;;0.70;0.70;;;11.60;82.60;;;;;;4973721;28;20689;-76
2021/05/04 04:44:58;;;;;;;0.60;0.60;;;11.70;81.70;;;;;;4973290;28;20204;-77
2021/05/04 04:47:25;;;;;;;0.70;0.70;;;11.70;81.40;;;;;;4973355;28;20204;-76
2021/05/04 04:49:52;;;;;;;0.63;0.63;;;11.70;81.20;;;;;;4973197;28;20293;-76
2021/05/04 04:52:21;;;;;;;0.63;0.63;;;11.70;80.90;;;;;;4974271;28;20225;-77
2021/05/04 04:54:48;;;;;;;0.70;0.70;;;11.70;81.70;;;;;;4974115;28;20205;-75
2021/05/04 04:57:15;;;;;;;0.60;0.60;;;11.80;81.90;;;;;;4974319;28;20212;-76
2021/05/04 04:59:43;;;;;;;0.70;0.70;;;11.80;81.10;;;;;;4973580;28;20215;-75
2021/05/04 05:02:10;;;;;;;0.68;0.68;;;12.00;81.90;;;;;;4972713;28;20240;-76
2021/05/04 05:04:37;;;;;;;0.70;0.70;;;11.90;81.00;;;;;;4973057;28;20235;-76
2021/05/04 05:07:06;;;;;;;0.70;0.70;;;12.00;81.80;;;;;;4985078;28;20207;-75
2021/05/04 05:09:36;;;;;;;0.70;0.70;;;11.90;79.90;;;;;;4977166;28;20248;-76
2021/05/04 05:12:04;;;;;;;0.70;0.70;;;12.00;80.90;;;;;;4973641;28;20243;-75
2021/05/04 05:14:33;;;;;;;0.68;0.68;;;12.20;80.90;;;;;;4973691;28;20263;-74
2021/05/04 05:17:00;;;;;;;0.60;0.60;;;12.20;80.10;;;;;;4973666;28;20666;-75
2021/05/04 05:19:29;;;;;;;0.70;0.70;;;12.20;80.00;;;;;;4973484;28;20226;-75
2021/05/04 05:21:56;;;;;;;0.70;0.70;;;12.40;79.50;;;;;;4973428;28;20279;-76
2021/05/04 05:24:23;;;;;;;0.70;0.70;;;12.40;80.30;;;;;;4973160;28;20216;-75
2021/05/04 05:26:51;;;;;;;0.70;0.70;;;12.60;79.80;;;;;;4974458;28;20620;-75
2021/05/04 05:29:18;;;;;;;0.70;0.70;;;12.70;79.10;;;;;;4974126;28;20263;-75
2021/05/04 05:31:45;;;;;;;0.60;0.60;;;12.70;78.10;;;;;;4973197;28;20280;-75
2021/05/04 05:34:12;;;;;;;0.60;0.60;;;12.80;78.40;;;;;;4973038;28;20205;-74
2021/05/04 05:36:39;;;;;;;0.70;0.70;;;12.80;78.30;;;;;;4973118;28;20204;-78
2021/05/04 05:39:06;;;;;;;0.60;0.60;;;12.90;78.10;;;;;;4973322;28;20616;-75
2021/05/04 05:41:33;;;;;;;0.70;0.70;;;13.00;77.70;;;;;;4972961;28;20239;-75
2021/05/04 05:44:00;;;;;;;0.50;0.50;;;12.90;78.10;;;;;;4973050;28;20204;-75
2021/05/04 05:46:30;;;;;;;0.60;0.60;;;13.00;77.90;;;;;;4973032;28;20683;-73
2021/05/04 05:48:58;;;;;;;0.70;0.70;;;13.00;78.10;;;;;;4973173;28;20210;-74
2021/05/04 05:51:25;;;;;;;0.60;0.60;;;13.10;77.40;;;;;;4972962;28;20231;-75
2021/05/04 05:53:54;;;;;;;0.70;0.70;;;13.20;77.30;;;;;;4973182;28;20205;-74
2021/05/04 05:56:21;;;;;;;0.60;0.60;;;13.10;77.10;;;;;;4972487;28;20239;-74
2021/05/04 05:58:47;;;;;;;0.60;0.60;;;13.30;77.60;;;;;;4971266;28;20262;-74
2021/05/04 06:01:14;;;;;;;0.50;0.50;;;13.40;76.90;;;;;;4970498;28;20225;-73
2021/05/04 06:03:41;;;;;;;0.68;0.68;;;13.40;77.30;;;;;;4972343;28;20212;-74
2021/05/04 06:06:08;;;;;;;0.50;0.50;;;13.30;75.70;;;;;;4973078;28;20211;-73
2021/05/04 06:08:35;;;;;;;0.60;0.60;;;13.20;75.30;;;;;;4973163;28;20279;-76
2021/05/04 06:11:03;;;;;;;0.60;0.60;;;13.30;74.90;;;;;;4972968;28;20319;-74
2021/05/04 06:13:30;;;;;;;0.60;0.60;;;13.50;75.70;;;;;;4972974;28;20259;-76
2021/05/04 06:15:57;;;;;;;0.60;0.60;;;13.40;74.70;;;;;;4973000;28;20259;-74
2021/05/04 06:18:23;;;;;;;0.60;0.60;;;13.30;74.30;;;;;;4972684;28;20213;-76
2021/05/04 06:20:50;;;;;;;0.60;0.60;;;13.20;74.30;;;;;;4973082;28;20266;-75
2021/05/04 06:23:18;;;;;;;0.60;0.60;;;13.30;76.00;;;;;;4972888;28;20644;-76
2021/05/04 06:25:45;;;;;;;0.60;0.60;;;13.40;75.00;;;;;;4972901;28;20204;-76
2021/05/04 06:28:13;;;;;;;0.60;0.60;;;13.30;74.70;;;;;;4973468;28;20204;-76
2021/05/04 06:30:40;;;;;;;0.50;0.50;;;13.30;74.40;;;;;;4976582;28;20635;-75
2021/05/04 06:33:09;;;;;;;0.70;0.70;;;13.20;75.10;;;;;;4976598;28;20600;-75
2021/05/04 06:35:40;;;;;;;0.60;0.60;;;13.10;75.30;;;;;;4976546;28;20208;-75
2021/05/04 06:38:08;;;;;;;0.60;0.60;;;13.10;75.30;;;;;;4976770;28;20556;-76
2021/05/04 06:40:35;;;;;;;0.60;0.60;;;13.20;75.70;;;;;;4976360;28;20713;-75
2021/05/04 06:43:02;;;;;;;0.60;0.60;;;13.30;76.30;;;;;;4976691;28;20220;-75
2021/05/04 06:45:30;;;;;;;0.60;0.60;;;13.30;75.30;;;;;;4976076;28;20209;-74
2021/05/04 06:47:58;;;;;;;0.50;0.50;;;13.40;76.60;;;;;;4976453;28;20208;-74
2021/05/04 06:50:25;;;;;;;0.60;0.60;;;13.50;94.70;;;;;;4976335;28;20267;-75
2021/05/04 06:52:52;;;;;;;0.60;0.60;;;13.30;75.50;;;;;;4976381;28;20200;-75
2021/05/04 06:55:19;;;;;;;0.60;0.60;;;13.40;76.00;;;;;;4976031;28;20205;-73
2021/05/04 06:57:46;;;;;;;0.70;0.70;;;13.40;75.10;;;;;;4975952;28;20661;-74
2021/05/04 07:00:15;;;;;;;0.65;0.65;;;13.00;95.10;;;;;;4976111;28;20204;-75
2021/05/04 07:02:42;;;;;;;0.60;0.60;;;13.10;75.90;;;;;;4976208;28;20228;-75
2021/05/04 07:05:11;;;;;;;0.70;0.70;;;13.10;75.60;;;;;;4976102;28;20212;-74
2021/05/04 07:07:38;;;;;;;0.50;0.50;;;13.10;75.90;;;;;;4975895;28;20628;-74
2021/05/04 07:10:06;;;;;;;0.60;0.60;;;13.30;76.50;;;;;;4976133;28;20255;-75
2021/05/04 07:12:33;;;;;;;0.60;0.60;;;13.30;75.70;;;;;;4975579;28;20232;-75
2021/05/04 07:15:00;;;;;;;0.60;0.60;;;13.50;75.50;;;;;;4976002;28;20212;-75
2021/05/04 07:17:27;;;;;;;0.60;0.60;;;13.60;74.50;;;;;;4975950;28;20212;-75
2021/05/04 07:19:56;;;;;;;0.60;0.60;;;13.80;74.80;;;;;;4975877;28;20239;-75
2021/05/04 07:22:25;;;;;;;0.50;0.50;;;13.90;74.80;;;;;;4975636;28;20601;-75
2021/05/04 07:24:52;;;;;;;0.60;0.60;;;14.10;74.30;;;;;;4975558;28;20200;-75
2021/05/04 07:27:20;;;;;;;0.60;0.60;;;14.00;73.20;;;;;;4975495;28;20267;-74
2021/05/04 07:29:47;;;;;;;0.50;0.50;;;14.10;73.30;;;;;;4975962;28;20263;-74
2021/05/04 07:32:17;;;;;;;0.60;0.60;;;14.30;80.30;;;;;;4975555;28;20217;-74
2021/05/04 07:34:49;;;;;;;0.50;0.50;;;14.30;72.30;;;;;;4975404;28;20550;-74
2021/05/04 07:37:17;;;;;;;0.50;0.50;;;14.40;72.10;;;;;;4975423;28;20208;-74
2021/05/04 07:39:44;;;;;;;0.50;0.50;;;14.60;71.80;;;;;;4974296;28;20236;-74
2021/05/04 07:42:12;;;;;;;0.60;0.60;;;14.50;71.10;;;;;;4974854;28;20697;-75
2021/05/04 07:44:40;;;;;;;0.60;0.60;;;14.50;71.20;;;;;;4975287;28;20232;-77
2021/05/04 07:47:07;;;;;;;0.50;0.50;;;14.40;71.00;;;;;;4975100;28;20666;-76
2021/05/04 07:49:37;;;;;;;0.43;0.43;;;14.50;71.00;;;;;;4975016;28;20237;-76
2021/05/04 07:52:04;;;;;;;0.50;0.50;;;14.70;70.50;;;;;;4975077;28;20228;-74
2021/05/04 07:54:32;;;;;;;0.50;0.50;;;14.90;70.40;;;;;;4975120;28;20231;-74
2021/05/04 07:56:59;;;;;;;0.40;0.40;;;14.80;69.50;;;;;;4975147;28;20220;-74
2021/05/04 07:59:25;;;;;;;0.50;0.50;;;15.00;70.50;;;;;;4974838;28;20693;-74
2021/05/04 08:01:52;;;;;;;0.50;0.50;;;14.90;70.40;;;;;;4974873;28;20225;-75
2021/05/04 08:04:19;;;;;;;0.60;0.60;;;15.00;69.50;;;;;;4974698;28;20212;-75
2021/05/04 08:06:46;;;;;;;0.50;0.50;;;15.00;68.80;;;;;;4974848;28;20565;-76
2021/05/04 08:09:13;;;;;;;0.60;0.60;;;15.10;70.40;;;;;;4974874;28;20208;-76
2021/05/04 08:11:41;;;;;;;0.50;0.50;;;14.90;68.70;;;;;;4977278;28;20232;-76
2021/05/04 08:14:08;;;;;;;0.50;0.50;;;14.90;69.00;;;;;;4982412;28;20197;-75
2021/05/04 08:16:35;;;;;;;0.50;0.50;;;15.30;69.40;;;;;;4980743;28;20260;-75
2021/05/04 08:19:04;;;;;;;0.50;0.50;;;15.30;68.10;;;;;;4988302;28;20534;-75
2021/05/04 08:21:33;;;;;;;0.50;0.50;;;15.20;67.90;;;;;;4988709;28;20227;-76
2021/05/04 08:24:00;;;;;;;0.50;0.50;;;15.10;68.60;;;;;;4993883;28;20259;-76
2021/05/04 08:26:27;;;;;;;0.60;0.60;;;15.10;68.30;;;;;;4990990;28;20253;-75
2021/05/04 08:28:56;;;;;;;0.57;0.57;;;15.40;68.80;;;;;;4993911;28;20211;-75
2021/05/04 08:31:24;;;;;;;0.50;0.50;;;15.60;68.40;;;;;;4982746;28;20588;-74
2021/05/04 08:33:51;;;;;;;0.50;0.50;;;15.50;67.10;;;;;;4974316;28;20681;-74
2021/05/04 08:36:17;;;;;;;0.50;0.50;;;15.60;67.30;;;;;;4982949;28;20220;-75
2021/05/04 08:38:44;;;;;;;0.40;0.40;;;15.60;67.50;;;;;;4976483;28;20225;-75
2021/05/04 08:41:14;;;;;;;0.50;0.50;;;15.60;68.00;;;;;;4993984;28;20223;-74
2021/05/04 08:43:45;;;;;;;0.40;0.40;;;15.80;68.40;;;;;;4993850;28;20224;-73
2021/05/04 08:46:13;;;;;;;0.50;0.50;;;15.80;68.70;;;;;;4996476;28;20517;-73
2021/05/04 08:48:43;;;;;;;0.50;0.50;;;15.50;82.10;;;;;;4994967;28;20624;-73
2021/05/04 08:51:12;;;;;;;0.40;0.40;;;15.60;64.80;;;;;;4989567;28;20219;-74
2021/05/04 08:53:59;;;;;;;0.50;0.50;;;15.50;65.80;;;;;;4973743;28;20205;-74
2021/05/04 08:56:26;;;;;;;0.60;0.60;;;15.30;65.50;;;;;;4987764;28;20247;-75
2021/05/04 08:58:52;;;;;;;0.50;0.50;;;15.40;65.70;;;;;;4993142;28;20262;-74
2021/05/04 09:01:20;;;;;;;0.40;0.40;;;15.50;65.80;;;;;;4990063;28;20256;-74
2021/05/04 09:03:49;;;;;;;0.40;0.40;;;15.60;65.60;;;;;;4984082;28;20243;-76
2021/05/04 09:06:23;;;;;;;0.40;0.40;;;15.60;64.80;;;;;;4978764;28;20894;-74
2021/05/04 09:08:53;;;;;;;0.50;0.50;;;15.60;65.20;;;;;;4981653;28;20207;-74
2021/05/04 09:11:42;;;;;;;0.50;0.50;;;15.80;64.60;;;;;;4982972;28;20867;-74
2021/05/04 09:14:15;;;;;;;0.50;0.50;;;16.10;65.30;;;;;;4986434;28;21547;-73
2021/05/04 09:17:01;;;;;;;0.50;0.50;;;16.30;63.50;;;;;;4984133;28;20250;-75
2021/05/04 09:19:42;;;;;;;0.50;0.50;;;16.30;63.50;;;;;;4983693;28;20232;-74
2021/05/04 09:22:14;;;;;;;0.50;0.50;;;16.30;63.60;;;;;;4983971;28;20274;-73
2021/05/04 09:24:43;;;;;;;0.40;0.40;;;16.20;64.40;;;;;;4983583;28;20200;-73
2021/05/04 09:27:11;;;;;;;0.40;0.40;;;16.00;64.50;;;;;;4981151;28;20666;-74
2021/05/04 09:29:41;;;;;;;0.40;0.40;;;16.20;65.10;;;;;;4978984;28;20690;-74
2021/05/04 09:32:11;;;;;;;0.40;0.40;;;16.20;65.90;;;;;;4982269;28;20208;-73
2021/05/04 09:34:49;;;;;;;0.50;0.50;;;16.20;65.00;;;;;;4976942;28;20294;-74
2021/05/04 09:37:29;;;;;;;0.40;0.40;;;16.40;65.30;;;;;;4992091;28;20203;-73
2021/05/04 09:40:15;;;;;;;0.50;0.50;;;16.30;65.40;;;;;;4986625;28;20204;-74
2021/05/04 09:43:02;;;;;;;0.50;0.50;;;16.30;66.80;;;;;;4991389;28;20212;-74
2021/05/04 09:45:29;;;;;;;0.50;0.50;;;16.40;67.20;;;;;;4984361;28;20335;-74
2021/05/04 09:48:16;;;;;;;0.50;0.50;;;16.30;67.00;;;;;;4982280;28;20545;-74
2021/05/04 09:50:48;;;;;;;0.50;0.50;;;16.00;71.20;;;;;;4982553;28;20275;-74
2021/05/04 09:53:20;;;;;;;0.50;0.50;;;15.90;73.20;;;;;;4981757;28;20200;-75
2021/05/04 09:55:55;;;;;;;0.50;0.50;;;15.80;75.00;;;;;;4982255;28;20192;-75
2021/05/04 09:58:37;;;;;;;0.50;0.50;;;15.60;76.30;;;;;;4983541;28;20200;-75
2021/05/04 10:01:07;;;;;;;0.50;0.50;;;15.60;78.10;;;;;;4980686;28;20223;-74
2021/05/04 10:03:36;;;;;;;0.50;0.50;;;15.30;75.30;;;;;;4979364;28;20286;-74
2021/05/04 10:06:05;;;;;;;0.50;0.50;;;15.10;79.70;;;;;;4989537;28;20203;-75
2021/05/04 10:08:33;;;;;;;0.50;0.50;;;15.00;83.50;;;;;;4996965;28;20211;-75
2021/05/04 10:11:03;;;;;;;0.40;0.40;;;14.80;81.00;;;;;;4996495;28;20236;-74
2021/05/04 10:13:31;;;;;;;0.50;0.50;;;14.70;83.80;;;;;;4996649;28;20203;-75
2021/05/04 10:15:58;;;;;;;0.50;0.50;;;14.70;84.00;;;;;;4996153;28;20208;-74
2021/05/04 10:18:25;;;;;;;0.60;0.60;;;14.60;80.40;;;;;;4996459;28;20214;-74
2021/05/04 10:20:55;;;;;;;0.60;0.60;;;14.50;83.80;;;;;;4996157;28;20230;-75
2021/05/04 10:23:23;;;;;;;0.60;0.60;;;14.40;83.10;;;;;;4996516;28;20285;-75
2021/05/04 10:25:54;;;;;;;0.60;0.60;;;14.40;84.80;;;;;;4990665;28;20207;-74
2021/05/04 10:28:22;;;;;;;0.50;0.50;;;14.30;86.60;;;;;;4989177;28;20200;-76
2021/05/04 10:30:49;;;;;;;0.50;0.50;;;14.30;97.00;;;;;;4990416;28;20221;-75
2021/05/04 10:33:30;;;;;;;0.60;0.60;;;14.30;88.20;;;;;;4980858;28;20208;-76
2021/05/04 10:36:00;;;;;;;0.50;0.50;;;14.40;91.20;;;;;;4976478;28;20349;-76
2021/05/04 10:38:27;;;;;;;0.40;0.40;;;14.30;90.20;;;;;;4976583;28;20204;-75
2021/05/04 10:41:02;;;;;;;0.60;0.60;;;14.40;88.10;;;;;;4986817;28;20224;-75
2021/05/04 10:43:37;;;;;;;0.55;0.55;;;14.50;83.50;;;;;;4995906;28;20634;-75
2021/05/04 10:46:08;;;;;;;0.50;0.50;;;14.70;83.00;;;;;;4979818;28;20216;-76
2021/05/04 10:48:45;;;;;;;0.50;0.50;;;14.90;82.50;;;;;;4976568;28;20232;-76
2021/05/04 10:51:14;;;;;;;0.50;0.50;;;15.10;82.50;;;;;;4984020;28;20211;-76
2021/05/04 10:54:04;;;;;;;0.40;0.40;;;15.30;78.20;;;;;;4992823;28;20196;-75
2021/05/04 10:56:36;;;;;;;0.50;0.50;;;15.40;75.70;;;;;;4976967;28;20600;-75
2021/05/04 10:59:04;;;;;;;0.50;0.50;;;15.60;77.20;;;;;;4980907;28;20204;-75
2021/05/04 11:01:31;;;;;;;0.50;0.50;;;15.70;73.20;;;;;;4982263;28;20216;-74
2021/05/04 11:03:59;;;;;;;0.50;0.50;;;15.80;74.80;;;;;;4983824;28;20850;-74
2021/05/04 11:06:57;;;;;;;0.40;0.40;;;15.90;73.20;;;;;;4984431;28;20550;-76
2021/05/04 11:09:24;;;;;;;0.50;0.50;;;16.10;72.90;;;;;;4990017;28;20212;-75
2021/05/04 11:11:52;;;;;;;0.50;0.50;;;16.10;70.80;;;;;;4988661;28;20228;-76
2021/05/04 11:14:21;;;;;;;0.50;0.50;;;16.10;68.90;;;;;;4984233;28;20895;-76
2021/05/04 11:17:08;;;;;;;0.50;0.50;;;16.00;69.80;;;;;;4979404;28;20250;-76
2021/05/04 11:19:39;;;;;;;0.50;0.50;;;15.90;68.40;;;;;;4980557;28;20205;-75
2021/05/04 11:22:13;;;;;;;0.50;0.50;;;15.90;68.90;;;;;;4986061;28;20231;-75
2021/05/04 11:24:43;;;;;;;0.50;0.50;;;16.00;69.40;;;;;;4981893;28;20203;-75
2021/05/04 11:27:25;;;;;;;0.40;0.40;;;16.20;70.20;;;;;;4978705;28;20204;-75
2021/05/04 11:29:53;;;;;;;0.40;0.40;;;16.30;69.40;;;;;;4985771;28;20258;-75
2021/05/04 11:32:21;;;;;;;0.50;0.50;;;16.50;69.20;;;;;;4987236;28;20282;-76
2021/05/04 11:34:57;;;;;;;0.50;0.50;;;16.50;68.30;;;;;;4988752;28;20227;-75
2021/05/04 11:37:37;;;;;;;0.40;0.40;;;16.50;66.40;;;;;;4987749;28;20258;-74
2021/05/04 11:40:07;;;;;;;0.50;0.50;;;16.50;66.10;;;;;;4985049;28;20200;-75
2021/05/04 11:42:37;;;;;;;0.50;0.50;;;16.50;66.60;;;;;;4995059;28;20228;-74
2021/05/04 11:45:07;;;;;;;0.50;0.50;;;16.80;66.40;;;;;;4992493;28;20673;-76
2021/05/04 11:47:35;;;;;;;0.40;0.40;;;17.00;65.00;;;;;;4979814;28;20200;-76
2021/05/04 11:50:05;;;;;;;0.40;0.40;;;17.10;64.30;;;;;;4975475;28;20295;-76
2021/05/04 11:52:32;;;;;;;0.30;0.30;;;17.40;64.80;;;;;;4993136;28;20267;-75
2021/05/04 11:55:15;;;;;;;0.40;0.40;;;17.50;63.70;;;;;;4988417;28;20283;-76
2021/05/04 11:57:44;;;;;;;0.40;0.40;;;17.70;62.30;;;;;;4987656;28;20560;-77
2021/05/04 12:00:14;;;;;;;0.30;0.30;;;17.70;63.00;;;;;;4994632;28;20215;-77
2021/05/04 12:02:42;;;;;;;0.40;0.40;;;17.70;66.40;;;;;;4989949;28;20265;-76
2021/05/04 12:05:09;;;;;;;0.40;0.40;;;17.70;61.30;;;;;;4994113;28;20592;-77
2021/05/04 12:07:40;;;;;;;0.30;0.30;;;17.70;62.90;;;;;;5002680;28;20278;-77
2021/05/04 12:10:25;;;;;;;0.30;0.30;;;17.60;62.80;;;;;;4984549;28;20254;-76
2021/05/04 12:12:53;;;;;;;0.30;0.30;;;17.70;62.40;;;;;;4983428;28;20200;-76
2021/05/04 12:15:22;;;;;;;0.30;0.30;;;17.60;62.20;;;;;;4979803;28;20205;-76
2021/05/04 12:18:12;;;;;;;0.30;0.30;;;17.60;61.80;;;;;;4985067;28;20200;-77
2021/05/04 12:20:45;;;;;;;0.30;0.30;;;17.80;61.60;;;;;;4979858;28;20220;-76
2021/05/04 12:23:14;;;;;;;0.40;0.40;;;17.80;61.00;;;;;;4983167;28;20603;-75
2021/05/04 12:25:46;;;;;;;0.40;0.40;;;17.70;61.10;;;;;;4983760;28;20229;-75
2021/05/04 12:28:15;;;;;;;0.40;0.40;;;17.50;60.00;;;;;;4982574;28;20255;-76
2021/05/04 12:30:42;;;;;;;0.40;0.40;;;17.30;59.50;;;;;;4984096;28;20271;-76
2021/05/04 12:33:09;;;;;;;0.40;0.40;;;17.20;60.20;;;;;;4985584;28;20719;-76
2021/05/04 12:35:45;;;;;;;0.40;0.40;;;17.00;60.30;;;;;;4986144;28;20258;-76
2021/05/04 12:38:16;;;;;;;0.50;0.50;;;17.10;60.70;;;;;;4985806;28;20712;-75
2021/05/04 12:41:06;;;;;;;0.40;0.40;;;17.10;61.90;;;;;;4977234;28;20227;-76
2021/05/04 12:43:36;;;;;;;0.40;0.40;;;17.10;60.80;;;;;;4981507;28;20221;-77
2021/05/04 12:46:13;;;;;;;0.40;0.40;;;17.20;61.40;;;;;;4989699;28;20638;-75
2021/05/04 12:48:42;;;;;;;0.30;0.30;;;17.10;61.20;;;;;;4983561;28;20231;-75
2021/05/04 12:51:11;;;;;;;0.40;0.40;;;17.10;61.50;;;;;;4981657;28;20220;-75
2021/05/04 12:53:40;;;;;;;0.30;0.30;;;17.10;62.20;;;;;;4992458;28;20266;-75
2021/05/04 12:56:11;;;;;;;0.40;0.40;;;17.20;62.70;;;;;;4986655;28;20200;-75
2021/05/04 12:58:57;;;;;;;0.30;0.30;;;17.20;62.70;;;;;;4989599;28;20205;-76
2021/05/04 13:01:32;;;;;;;0.40;0.40;;;17.40;63.10;;;;;;4973973;28;20248;-75
2021/05/04 13:04:01;;;;;;;0.30;0.30;;;17.40;62.60;;;;;;4973813;28;20270;-76
2021/05/04 13:06:39;;;;;;;0.30;0.30;;;17.40;62.10;;;;;;4978362;28;20279;-75
2021/05/04 13:09:14;;;;;;;0.40;0.40;;;17.30;62.00;;;;;;4984964;28;20206;-76
2021/05/04 13:11:53;;;;;;;0.40;0.40;;;17.30;63.20;;;;;;4993149;28;20235;-75
2021/05/04 13:14:50;;;;;;;0.40;0.40;;;17.30;63.00;;;;;;4981607;28;20197;-75
2021/05/04 13:29:26;;;;;;;0.50;0.50;;;17.30;63.40;;;;;;4976242;28;20201;-76
2021/05/04 13:32:02;;;;;;;0.30;0.30;;;17.30;63.40;;;;;;4973690;28;20276;-76
2021/05/04 13:34:34;;;;;;;0.40;0.40;;;17.40;63.50;;;;;;4973404;28;20232;-75
2021/05/04 13:37:02;;;;;;;0.40;0.40;;;17.20;63.80;;;;;;4973467;28;20201;-76
2021/05/04 13:39:51;;;;;;;0.40;0.40;;;17.00;63.60;;;;;;4973327;28;20209;-76
2021/05/04 13:48:04;;;;;;;0.40;0.40;;;16.80;66.20;;;;;;4980990;28;20200;-76
2021/05/04 13:50:31;;;;;;;0.50;0.50;;;16.90;65.00;;;;;;4993263;28;20619;-76
2021/05/04 13:52:58;;;;;;;0.40;0.40;;;16.90;65.40;;;;;;4984344;28;20200;-76
2021/05/04 13:55:25;;;;;;;0.40;0.40;;;17.20;65.00;;;;;;4978398;28;20204;-77
2021/05/04 13:57:54;;;;;;;0.40;0.40;;;17.10;65.30;;;;;;4982077;28;20197;-78
2021/05/04 14:00:27;;;;;;;0.40;0.40;;;16.50;97.00;;;;;;4975162;28;20211;-78
2021/05/04 14:03:04;;;;;;;0.50;0.50;;;16.60;66.60;;;;;;4984290;28;20218;-77
2021/05/04 14:05:47;;;;;;;0.40;0.40;;;16.60;68.30;;;;;;4984726;28;20196;-77
2021/05/04 14:25:09;;;;;;;0.43;0.43;;;15.90;72.80;;;;;;4985383;28;20238;-77
2021/05/04 14:27:36;;;;;;;0.50;0.50;;;16.00;72.40;;;;;;4984102;28;20243;-76
2021/05/04 14:30:04;;;;;;;0.40;0.40;;;16.20;72.50;;;;;;4983863;28;20205;-77
2021/05/04 14:32:32;;;;;;;0.50;0.50;;;16.20;71.50;;;;;;4983210;28;20224;-76
2021/05/04 14:35:01;;;;;;;0.35;0.35;;;16.30;71.10;;;;;;4986035;28;20658;-76
2021/05/04 14:37:32;;;;;;;0.40;0.40;;;16.30;71.20;;;;;;4994520;28;20344;-77
2021/05/04 14:40:09;;;;;;;0.40;0.40;;;16.20;65.90;;;;;;4985258;28;20263;-77
2021/05/04 14:43:22;;;;;;;0.50;0.50;;;16.00;66.00;;;;;;4984453;28;20220;-76
2021/05/04 14:57:20;;;;;;;0.50;0.50;;;16.10;68.30;;;;;;4985726;28;20256;-75
2021/05/04 14:59:48;;;;;;;0.40;0.40;;;16.30;68.50;;;;;;4986499;28;20287;-77
2021/05/04 15:02:15;;;;;;;0.50;0.50;;;16.10;67.80;;;;;;4985004;28;20220;-77
2021/05/04 15:04:45;;;;;;;0.50;0.50;;;16.10;68.60;;;;;;4982968;28;20573;-77
2021/05/04 15:07:12;;;;;;;0.40;0.40;;;16.10;69.20;;;;;;4985106;28;20196;-76
2021/05/04 15:09:40;;;;;;;0.50;0.50;;;16.00;68.70;;;;;;4985042;28;20196;-75
2021/05/04 15:12:09;;;;;;;0.50;0.50;;;16.00;69.10;;;;;;4983575;28;20632;-77
2021/05/04 15:14:43;;;;;;;0.50;0.50;;;15.90;69.00;;;;;;4983964;28;20192;-76
2021/05/04 15:17:15;;;;;;;0.30;0.30;;;16.00;69.50;;;;;;4986171;28;20197;-76
2021/05/04 15:22:28;;;;;;;0.40;0.40;;;16.10;68.40;;;;;;4989114;28;20311;-77
2021/05/04 15:24:55;;;;;;;0.40;0.40;;;16.20;67.70;;;;;;4981179;28;20224;-75
2021/05/04 15:27:22;;;;;;;0.50;0.50;;;16.00;67.40;;;;;;4986583;28;20201;-76
2021/05/04 15:29:50;;;;;;;0.50;0.50;;;16.10;67.20;;;;;;4977918;28;20196;-76
2021/05/04 15:32:27;;;;;;;0.40;0.40;;;16.10;66.70;;;;;;4983257;28;20228;-75
2021/05/04 15:34:59;;;;;;;0.40;0.40;;;16.10;66.90;;;;;;4981452;28;20673;-76
2021/05/04 15:37:26;;;;;;;0.40;0.40;;;16.00;66.50;;;;;;4984135;28;20197;-75
2021/05/04 15:39:57;;;;;;;0.50;0.50;;;15.90;65.50;;;;;;4983200;28;20247;-74
2021/05/04 15:42:26;;;;;;;0.50;0.50;;;15.90;65.50;;;;;;4994999;28;20230;-74
2021/05/04 15:44:58;;;;;;;0.45;0.45;;;16.20;65.80;;;;;;4994199;28;20270;-75
2021/05/04 15:47:32;;;;;;;0.40;0.40;;;16.40;65.60;;;;;;4983807;28;20208;-74
2021/05/04 15:50:04;;;;;;;0.40;0.40;;;16.10;64.90;;;;;;4983687;28;20208;-76
2021/05/04 15:52:40;;;;;;;0.40;0.40;;;16.10;65.70;;;;;;4987248;28;20216;-76
2021/05/04 16:00:59;;;;;;;0.47;0.47;;;16.00;66.00;;;;;;4995300;28;20243;-78
2021/05/04 16:03:42;;;;;;;0.40;0.40;;;16.00;65.20;;;;;;4991585;28;20220;-78
2021/05/04 16:06:23;;;;;;;0.40;0.40;;;16.00;66.20;;;;;;4984549;28;20228;-79
2021/05/04 16:08:54;;;;;;;0.40;0.40;;;16.10;65.20;;;;;;4988341;28;20209;-79
2021/05/04 16:11:21;;;;;;;0.50;0.50;;;16.20;65.80;;;;;;4985732;28;20235;-79
2021/05/04 16:13:51;;;;;;;0.40;0.40;;;16.20;65.70;;;;;;4985993;28;20205;-77
2021/05/04 16:16:20;;;;;;;0.40;0.40;;;16.10;65.50;;;;;;4984260;28;20205;-77
2021/05/04 16:18:50;;;;;;;0.40;0.40;;;16.00;65.90;;;;;;4981815;28;20646;-80
2021/05/04 16:21:26;;;;;;;0.50;0.50;;;16.10;66.90;;;;;;4983785;28;20228;-80
2021/05/04 16:23:59;;;;;;;0.50;0.50;;;16.20;68.40;;;;;;4981459;28;20228;-80
2021/05/04 16:26:36;;;;;;;0.43;0.43;;;16.10;67.00;;;;;;4981475;28;20209;-80
2021/05/04 16:29:06;;;;;;;0.40;0.40;;;16.20;67.30;;;;;;4987409;28;20621;-78
2021/05/04 16:31:34;;;;;;;0.40;0.40;;;16.30;66.80;;;;;;4995505;28;20227;-78
2021/05/04 16:34:01;;;;;;;0.30;0.30;;;16.40;66.90;;;;;;4986569;28;20249;-77
2021/05/04 16:36:29;;;;;;;0.30;0.30;;;16.30;67.20;;;;;;4976142;28;20255;-77
2021/05/04 16:39:00;;;;;;;0.40;0.40;;;16.40;67.00;;;;;;4975211;28;20300;-78
2021/05/04 16:41:28;;;;;;;0.30;0.30;;;16.30;67.30;;;;;;4979052;28;20324;-78
2021/05/04 16:43:55;;;;;;;0.40;0.40;;;16.30;67.80;;;;;;4983253;28;20268;-77
2021/05/04 16:46:22;;;;;;;0.40;0.40;;;16.20;68.30;;;;;;4987886;28;20192;-77
2021/05/04 16:48:50;;;;;;;0.30;0.30;;;16.10;68.90;;;;;;4985272;28;20192;-78
2021/05/04 16:51:19;;;;;;;0.30;0.30;;;16.00;69.00;;;;;;4986454;28;20221;-77
2021/05/04 16:53:46;;;;;;;0.30;0.30;;;16.00;69.30;;;;;;4984244;28;20203;-76
2021/05/04 16:56:13;;;;;;;0.32;0.32;;;15.90;69.90;;;;;;4988023;28;20245;-76
2021/05/04 16:58:47;;;;;;;0.50;0.50;;;15.90;70.50;;;;;;4987167;28;20251;-77
2021/05/04 17:01:14;;;;;;;0.30;0.30;;;16.10;70.50;;;;;;4985136;28;20219;-77
2021/05/04 17:03:43;;;;;;;0.50;0.50;;;16.00;70.80;;;;;;4984045;28;20220;-74
2021/05/04 17:06:18;;;;;;;0.30;0.30;;;15.90;71.00;;;;;;4983377;28;20204;-76
2021/05/04 17:08:55;;;;;;;0.40;0.40;;;15.90;70.30;;;;;;4991229;28;20218;-76
2021/05/04 17:11:22;;;;;;;0.45;0.45;;;16.00;71.60;;;;;;4995639;28;20661;-79
2021/05/04 17:13:51;;;;;;;0.50;0.50;;;16.00;70.70;;;;;;4995149;28;20262;-76
2021/05/04 17:16:18;;;;;;;0.40;0.40;;;15.80;70.20;;;;;;4996840;28;20580;-77
2021/05/04 17:18:45;;;;;;;0.40;0.40;;;15.70;71.10;;;;;;4987478;28;20196;-78
2021/05/04 17:21:12;;;;;;;0.40;0.40;;;15.60;69.70;;;;;;4978808;28;20279;-77
2021/05/04 17:23:39;;;;;;;0.50;0.50;;;15.50;70.20;;;;;;4977704;28;20224;-77
2021/05/04 17:26:06;;;;;;;0.40;0.40;;;15.50;70.80;;;;;;4976585;28;20213;-77
2021/05/04 17:28:33;;;;;;;0.50;0.50;;;15.50;69.90;;;;;;4985673;28;20204;-77
2021/05/04 17:31:00;;;;;;;0.50;0.50;;;15.40;69.90;;;;;;4980276;28;20221;-77
2021/05/04 17:33:27;;;;;;;0.40;0.40;;;15.40;70.00;;;;;;4979285;28;20204;-79
2021/05/04 17:35:57;;;;;;;0.50;0.50;;;15.40;69.80;;;;;;4975511;28;20205;-77
2021/05/04 17:38:26;;;;;;;0.40;0.40;;;15.40;70.30;;;;;;4976501;28;20201;-77
2021/05/04 17:40:55;;;;;;;0.50;0.50;;;15.30;69.80;;;;;;4975137;28;20641;-77
2021/05/04 17:43:23;;;;;;;0.38;0.38;;;15.40;69.80;;;;;;4974469;28;20872;-77
2021/05/04 17:45:50;;;;;;;0.40;0.40;;;15.30;69.60;;;;;;4974286;28;20670;-77
2021/05/04 17:48:18;;;;;;;0.50;0.50;;;15.00;71.40;;;;;;4975280;28;20215;-77
2021/05/04 17:50:46;;;;;;;0.40;0.40;;;15.00;70.20;;;;;;4975137;28;20280;-76
2021/05/04 17:53:13;;;;;;;0.40;0.40;;;15.00;70.20;;;;;;4975887;28;20209;-77
2021/05/04 17:55:40;;;;;;;0.50;0.50;;;15.00;70.10;;;;;;4978701;28;20254;-77
2021/05/04 17:58:07;;;;;;;0.50;0.50;;;15.00;70.70;;;;;;4995244;28;20612;-77
2021/05/04 18:00:35;;;;;;;0.50;0.50;;;15.10;70.60;;;;;;4996984;28;20896;-77
2021/05/04 18:03:05;;;;;;;0.50;0.50;;;15.20;70.40;;;;;;4994882;28;20207;-76
2021/05/04 18:05:32;;;;;;;0.50;0.50;;;15.20;70.40;;;;;;4992412;28;20210;-77
2021/05/04 18:08:04;;;;;;;0.50;0.50;;;15.20;69.30;;;;;;4983834;28;20257;-76